createdAt,value
2023-09-29T00:01:13.438Z,73.55
2023-09-29T00:03:46.239Z,74.17
2023-09-29T00:06:18.108Z,74.23
2023-09-29T00:08:49.658Z,73.91
2023-09-29T00:11:21.395Z,74.70
2023-09-29T00:13:53.113Z,74.92
2023-09-29T00:16:25.072Z,74.83
2023-09-29T00:18:57.272Z,75.26
2023-09-29T00:21:29.977Z,75.21
2023-09-29T00:24:01.778Z,75.02
2023-09-29T00:26:33.487Z,75.12
2023-09-29T00:29:05.297Z,74.95
2023-09-29T00:31:36.891Z,75.30
2023-09-29T00:34:08.404Z,75.90
2023-09-29T00:36:40.246Z,76.09
2023-09-29T00:39:14.912Z,76.52
2023-09-29T00:41:47.083Z,76.29
2023-09-29T00:44:20.230Z,77.24
2023-09-29T00:46:52.332Z,77.61
2023-09-29T00:49:24.861Z,78.17
2023-09-29T00:52:01.109Z,77.24
2023-09-29T00:54:34.029Z,77.11
2023-09-29T00:57:07.054Z,78.43
2023-09-29T00:59:39.082Z,78.15
2023-09-29T01:02:12.047Z,78.42
2023-09-29T01:04:44.086Z,78.03
2023-09-29T01:07:17.112Z,77.81
2023-09-29T01:09:48.727Z,78.44
2023-09-29T01:12:28.462Z,78.21
2023-09-29T01:15:00.819Z,79.35
2023-09-29T01:17:32.639Z,79.02
2023-09-29T01:20:07.113Z,78.60
2023-09-29T01:22:47.796Z,79.07
2023-09-29T01:25:19.457Z,79.37
2023-09-29T01:27:51.502Z,79.65
2023-09-29T01:30:23.744Z,79.28
2023-09-29T01:32:57.774Z,79.28
2023-09-29T01:35:29.719Z,78.80
2023-09-29T01:38:01.680Z,78.80
2023-09-29T01:40:34.657Z,78.74
2023-09-29T01:43:06.926Z,78.60
2023-09-29T01:45:39.961Z,78.67
2023-09-29T01:48:13.149Z,77.79
2023-09-29T01:50:45.072Z,77.75
2023-09-29T01:53:17.037Z,77.67
2023-09-29T01:55:49.003Z,77.74
2023-09-29T01:58:20.668Z,78.39
2023-09-29T02:00:52.265Z,78.90
2023-09-29T02:03:25.546Z,78.57
2023-09-29T02:05:57.289Z,78.47
2023-09-29T02:08:28.871Z,78.13
2023-09-29T02:11:01.743Z,78.00
2023-09-29T02:13:33.289Z,78.40
2023-09-29T02:16:11.876Z,78.12
2023-09-29T02:18:43.760Z,78.20
2023-09-29T02:21:25.105Z,78.15
2023-09-29T02:23:56.735Z,78.61
2023-09-29T02:26:30.335Z,78.82
2023-09-29T02:29:02.402Z,78.79
2023-09-29T02:31:33.961Z,78.91
2023-09-29T02:34:05.683Z,78.77
2023-09-29T02:36:37.527Z,78.98
2023-09-29T02:39:10.059Z,79.01
2023-09-29T02:41:41.685Z,78.81
2023-09-29T02:44:13.313Z,79.27
2023-09-29T02:46:44.995Z,79.67
2023-09-29T02:49:21.556Z,79.81
2023-09-29T02:51:53.119Z,79.82
2023-09-29T02:54:24.626Z,79.63
2023-09-29T02:56:57.516Z,80.94
2023-09-29T02:59:33.131Z,79.99
2023-09-29T03:02:07.149Z,80.10
2023-09-29T03:04:40.257Z,80.11
2023-09-29T03:07:11.863Z,82.21
2023-09-29T03:09:43.543Z,82.24
2023-09-29T03:12:15.090Z,81.71
2023-09-29T03:14:46.659Z,81.42
2023-09-29T03:17:19.004Z,81.26
2023-09-29T03:19:50.618Z,80.48
2023-09-29T03:22:22.163Z,80.40
2023-09-29T03:24:53.699Z,81.12
2023-09-29T03:27:25.278Z,82.73
2023-09-29T03:29:56.839Z,81.22
2023-09-29T03:32:30.363Z,81.04
2023-09-29T03:35:02.176Z,81.51
2023-09-29T03:37:40.965Z,81.58
2023-09-29T03:40:15.564Z,81.62
2023-09-29T03:42:47.984Z,81.46
2023-09-29T03:45:19.693Z,82.00
2023-09-29T03:47:52.558Z,81.46
2023-09-29T03:50:24.224Z,81.93
2023-09-29T03:52:55.854Z,83.16
2023-09-29T03:55:28.190Z,82.95
2023-09-29T03:57:59.659Z,83.89
2023-09-29T04:00:32.164Z,83.65
2023-09-29T04:03:03.929Z,83.48
2023-09-29T04:05:35.682Z,82.77
2023-09-29T04:08:07.242Z,82.76
2023-09-29T04:10:38.813Z,82.64
2023-09-29T04:13:10.349Z,82.13
2023-09-29T04:15:41.891Z,82.60
2023-09-29T04:18:13.477Z,82.04
2023-09-29T04:20:45.052Z,81.38
2023-09-29T04:23:16.970Z,81.87
2023-09-29T04:25:48.605Z,81.39
2023-09-29T04:28:20.630Z,81.82
2023-09-29T04:30:52.216Z,81.55
2023-09-29T04:33:23.833Z,81.32
2023-09-29T04:35:55.697Z,81.00
2023-09-29T04:38:27.293Z,81.32
2023-09-29T04:40:59.481Z,81.46
2023-09-29T04:43:31.849Z,81.33
2023-09-29T04:46:03.373Z,81.24
2023-09-29T04:48:35.018Z,81.14
2023-09-29T04:51:07.324Z,80.87
2023-09-29T04:53:38.771Z,81.12
2023-09-29T04:56:10.368Z,80.76
2023-09-29T04:58:41.896Z,81.13
2023-09-29T05:01:24.940Z,81.33
2023-09-29T05:03:56.626Z,81.12
2023-09-29T05:06:29.773Z,80.75
2023-09-29T05:09:02.124Z,81.57
2023-09-29T05:11:33.600Z,81.06
2023-09-29T05:14:05.637Z,80.95
2023-09-29T05:16:37.277Z,81.43
2023-09-29T05:19:08.950Z,81.20
2023-09-29T05:21:40.723Z,81.38
2023-09-29T05:24:12.306Z,81.50
2023-09-29T05:26:43.902Z,81.48
2023-09-29T05:29:15.533Z,81.84
2023-09-29T05:31:47.257Z,81.83
2023-09-29T05:34:18.828Z,82.30
2023-09-29T05:36:50.420Z,82.58
2023-09-29T05:39:22.030Z,82.23
2023-09-29T05:41:53.609Z,82.39
2023-09-29T05:44:25.388Z,82.65
2023-09-29T05:46:56.976Z,83.47
2023-09-29T05:49:28.694Z,82.86
2023-09-29T05:52:00.241Z,83.78
2023-09-29T05:54:31.864Z,84.11
2023-09-29T05:57:03.823Z,84.06
2023-09-29T05:59:35.414Z,83.30
2023-09-29T06:02:18.696Z,84.34
2023-09-29T06:04:50.908Z,84.30
2023-09-29T06:07:22.702Z,84.00
2023-09-29T06:09:54.261Z,84.60
2023-09-29T06:12:26.349Z,84.99
2023-09-29T06:14:58.210Z,85.57
2023-09-29T06:17:31.479Z,85.67
2023-09-29T06:20:04.650Z,84.88
2023-09-29T06:22:36.186Z,85.42
2023-09-29T06:25:07.914Z,85.19
2023-09-29T06:27:39.472Z,85.66
2023-09-29T06:30:11.314Z,86.74
2023-09-29T06:32:43.679Z,85.85
2023-09-29T06:35:16.272Z,86.60
2023-09-29T06:37:47.905Z,86.02
2023-09-29T06:40:19.448Z,86.66
2023-09-29T06:42:51.017Z,85.56
2023-09-29T06:45:26.248Z,86.31
2023-09-29T06:48:08.347Z,86.49
2023-09-29T06:50:40.042Z,85.70
2023-09-29T06:53:11.740Z,84.53
2023-09-29T06:55:43.256Z,85.16
2023-09-29T06:58:14.825Z,84.89
2023-09-29T07:00:46.756Z,83.70
2023-09-29T07:03:19.034Z,83.34
2023-09-29T07:05:51.123Z,83.21
2023-09-29T07:08:22.800Z,82.38
2023-09-29T07:10:55.349Z,82.34
2023-09-29T07:13:26.979Z,82.07
2023-09-29T07:15:59.269Z,81.95
2023-09-29T07:18:31.022Z,81.52
2023-09-29T07:21:02.722Z,81.55
2023-09-29T07:23:35.873Z,79.05
2023-09-29T07:26:07.478Z,78.55
2023-09-29T07:28:39.103Z,78.74
2023-09-29T07:31:10.713Z,78.04
2023-09-29T07:33:42.347Z,77.09
2023-09-29T07:36:14.123Z,76.76
2023-09-29T07:38:45.784Z,76.42
2023-09-29T07:41:18.457Z,76.47
2023-09-29T07:43:50.010Z,75.84
2023-09-29T07:46:22.139Z,74.34
2023-09-29T07:48:53.854Z,74.58
2023-09-29T07:51:26.318Z,74.10
2023-09-29T07:53:58.613Z,74.15
2023-09-29T07:56:30.290Z,73.83
2023-09-29T07:59:02.232Z,73.05
2023-09-29T08:01:33.909Z,73.04
2023-09-29T08:04:06.249Z,72.25
2023-09-29T08:06:39.141Z,71.86
2023-09-29T08:09:13.757Z,71.52
2023-09-29T08:11:45.638Z,71.06
2023-09-29T08:14:18.145Z,69.08
2023-09-29T08:16:49.856Z,66.88
2023-09-29T08:19:21.819Z,65.47
2023-09-29T08:21:53.382Z,66.03
2023-09-29T08:24:24.990Z,64.92
2023-09-29T08:26:56.917Z,64.16
2023-09-29T08:29:28.597Z,63.34
2023-09-29T08:32:02.129Z,61.77
2023-09-29T08:34:35.598Z,61.02
2023-09-29T08:37:07.208Z,61.17
2023-09-29T08:39:40.781Z,59.75
2023-09-29T08:42:30.584Z,60.07
2023-09-29T08:45:04.521Z,59.34
2023-09-29T08:47:41.620Z,57.35
2023-09-29T08:50:13.934Z,57.30
2023-09-29T08:52:46.418Z,57.17
2023-09-29T08:55:18.407Z,57.38
2023-09-29T08:57:51.054Z,56.57
2023-09-29T09:00:24.698Z,56.74
2023-09-29T09:02:59.300Z,56.38
2023-09-29T09:05:31.421Z,55.86
2023-09-29T09:08:03.270Z,55.85
2023-09-29T09:10:36.797Z,55.33
2023-09-29T09:13:09.353Z,55.48
2023-09-29T09:15:40.962Z,55.90
2023-09-29T09:18:13.171Z,55.15
2023-09-29T09:20:44.863Z,53.88
2023-09-29T09:23:16.441Z,55.01
2023-09-29T09:25:48.586Z,54.71
2023-09-29T09:28:21.004Z,53.64
2023-09-29T09:31:00.952Z,53.06
2023-09-29T09:33:32.778Z,51.85
2023-09-29T09:36:07.241Z,52.07
2023-09-29T09:38:40.427Z,51.38
2023-09-29T09:41:15.848Z,50.83
2023-09-29T09:43:47.620Z,50.60
2023-09-29T09:46:20.474Z,51.27
2023-09-29T09:48:58.026Z,50.68
2023-09-29T09:51:45.298Z,51.32
2023-09-29T09:54:22.550Z,50.53
2023-09-29T09:57:10.866Z,49.46
2023-09-29T09:59:43.250Z,49.38
2023-09-29T10:02:15.044Z,48.57
2023-09-29T10:04:48.850Z,49.23
2023-09-29T10:07:21.918Z,49.90
2023-09-29T10:09:53.513Z,49.00
2023-09-29T10:12:29.736Z,48.99
2023-09-29T10:15:01.282Z,48.85
2023-09-29T10:17:42.890Z,48.12
2023-09-29T10:20:25.506Z,47.81
2023-09-29T10:23:10.160Z,46.59
2023-09-29T10:26:00.299Z,46.40
2023-09-29T10:28:37.720Z,47.17
2023-09-29T10:31:16.993Z,46.95
2023-09-29T10:33:57.157Z,45.03
2023-09-29T10:36:31.022Z,46.17
2023-09-29T10:39:05.577Z,45.08
2023-09-29T10:41:38.878Z,46.08
2023-09-29T10:44:12.184Z,44.13
2023-09-29T10:46:50.791Z,42.55
2023-09-29T10:49:32.551Z,43.65
2023-09-29T10:52:05.930Z,43.41
2023-09-29T10:54:44.147Z,43.97
2023-09-29T10:57:21.155Z,42.51
2023-09-29T10:59:53.943Z,42.54
2023-09-29T11:02:30.623Z,42.86
2023-09-29T11:05:08.493Z,42.15
2023-09-29T11:07:51.526Z,41.09
2023-09-29T11:10:23.107Z,40.54
2023-09-29T11:12:54.698Z,40.89
2023-09-29T11:15:27.948Z,38.81
2023-09-29T11:17:59.748Z,41.21
2023-09-29T11:20:31.557Z,40.47
2023-09-29T11:23:12.412Z,39.58
2023-09-29T11:25:51.410Z,39.17
2023-09-29T11:28:23.054Z,39.35
2023-09-29T11:30:55.341Z,38.75
2023-09-29T11:33:27.133Z,37.44
2023-09-29T11:36:06.493Z,38.00
2023-09-29T11:38:38.474Z,39.11
2023-09-29T11:41:09.988Z,38.57
2023-09-29T11:43:42.561Z,38.17
2023-09-29T11:46:15.383Z,38.16
2023-09-29T11:48:47.586Z,39.02
2023-09-29T11:51:19.293Z,39.65
2023-09-29T11:53:51.753Z,39.44
2023-09-29T11:56:23.388Z,38.09
2023-09-29T11:58:57.777Z,39.02
2023-09-29T12:01:30.301Z,38.87
2023-09-29T12:04:02.749Z,37.06
2023-09-29T12:06:34.522Z,37.66
2023-09-29T12:09:06.711Z,37.74
2023-09-29T12:11:38.618Z,37.11
2023-09-29T12:14:10.087Z,36.83
2023-09-29T12:16:41.754Z,37.04
2023-09-29T12:19:14.092Z,36.78
2023-09-29T12:21:45.789Z,37.37
2023-09-29T12:24:17.527Z,37.28
2023-09-29T12:26:49.114Z,37.47
2023-09-29T12:29:20.685Z,36.92
2023-09-29T12:31:52.594Z,36.87
2023-09-29T12:34:24.334Z,36.53
2023-09-29T12:36:56.499Z,35.93
2023-09-29T12:39:28.139Z,36.03
2023-09-29T12:41:59.783Z,35.34
2023-09-29T12:44:31.257Z,35.01
2023-09-29T12:47:02.781Z,33.68
2023-09-29T12:49:34.458Z,32.81
2023-09-29T12:52:08.611Z,32.13
2023-09-29T12:54:41.476Z,32.31
2023-09-29T12:57:16.062Z,32.11
2023-09-29T12:59:48.581Z,30.88
2023-09-29T13:02:21.342Z,27.31
2023-09-29T13:04:52.931Z,26.36
2023-09-29T13:07:24.649Z,25.30
2023-09-29T13:09:56.406Z,23.67
2023-09-29T13:12:31.798Z,23.39
2023-09-29T13:15:06.575Z,22.45
2023-09-29T13:17:38.236Z,21.00
2023-09-29T13:20:11.330Z,20.76
2023-09-29T13:22:42.946Z,20.94
2023-09-29T13:25:15.801Z,19.96
2023-09-29T13:27:47.581Z,20.51
2023-09-29T13:30:19.648Z,19.19
2023-09-29T13:32:51.301Z,18.74
2023-09-29T13:35:23.506Z,18.63
2023-09-29T13:37:55.550Z,18.46
2023-09-29T13:40:27.157Z,17.31
2023-09-29T13:42:58.662Z,16.57
2023-09-29T13:45:30.272Z,15.75
2023-09-29T13:48:02.436Z,16.84
2023-09-29T13:50:36.713Z,16.09
2023-09-29T13:53:08.330Z,17.01
2023-09-29T13:55:40.554Z,17.18
2023-09-29T13:58:12.164Z,15.68
2023-09-29T14:00:44.485Z,15.10
2023-09-29T14:03:16.173Z,14.99
2023-09-29T14:05:48.754Z,16.61
2023-09-29T14:08:20.623Z,18.68
2023-09-29T14:10:52.209Z,19.72
2023-09-29T14:13:23.900Z,20.59
2023-09-29T14:15:56.656Z,19.05
2023-09-29T14:18:28.284Z,18.00
2023-09-29T14:21:00.279Z,18.57
2023-09-29T14:23:34.686Z,18.99
2023-09-29T14:26:11.679Z,21.46
2023-09-29T14:28:43.243Z,22.27
2023-09-29T14:31:14.824Z,19.88
2023-09-29T14:33:46.471Z,17.03
2023-09-29T14:36:18.475Z,15.36
2023-09-29T14:38:50.180Z,15.28
2023-09-29T14:41:21.740Z,16.57
2023-09-29T14:43:53.421Z,16.84
2023-09-29T14:46:25.715Z,16.52
2023-09-29T14:48:57.469Z,18.69
2023-09-29T14:51:29.294Z,16.86
2023-09-29T14:54:01.235Z,17.20
2023-09-29T14:56:34.431Z,16.54
2023-09-29T14:59:07.735Z,14.55
2023-09-29T15:01:39.413Z,14.17
2023-09-29T15:04:11.051Z,14.17
2023-09-29T15:06:45.278Z,14.13
2023-09-29T15:09:16.970Z,15.49
2023-09-29T15:11:49.552Z,15.70
2023-09-29T15:14:21.115Z,16.18
2023-09-29T15:16:52.819Z,16.19
2023-09-29T15:19:24.493Z,17.42
2023-09-29T15:21:56.157Z,21.87
2023-09-29T15:24:27.800Z,24.19
2023-09-29T15:26:59.451Z,26.76
2023-09-29T15:29:32.187Z,27.99
2023-09-29T15:32:03.856Z,29.17
2023-09-29T15:34:35.886Z,30.44
2023-09-29T15:37:08.842Z,29.92
2023-09-29T15:39:40.446Z,29.03
2023-09-29T15:42:12.127Z,29.93
2023-09-29T15:44:43.661Z,29.99
2023-09-29T15:47:15.242Z,31.06
2023-09-29T15:49:46.759Z,31.15
2023-09-29T15:52:18.783Z,31.66
2023-09-29T15:54:50.329Z,32.91
2023-09-29T15:57:21.755Z,34.00
2023-09-29T15:59:53.384Z,34.56
2023-09-29T16:02:27.178Z,35.13
2023-09-29T16:04:59.394Z,34.42
2023-09-29T16:07:31.237Z,36.57
2023-09-29T16:10:03.332Z,36.76
2023-09-29T16:12:35.034Z,36.61
2023-09-29T16:15:07.099Z,37.45
2023-09-29T16:17:43.354Z,37.20
2023-09-29T16:20:15.015Z,37.28
2023-09-29T16:22:46.602Z,37.30
2023-09-29T16:25:18.208Z,39.26
2023-09-29T16:27:49.622Z,39.81
2023-09-29T16:30:21.306Z,40.54
2023-09-29T16:32:54.520Z,41.92
2023-09-29T16:35:35.921Z,42.46
2023-09-29T16:38:09.226Z,41.02
2023-09-29T16:40:40.678Z,42.55
2023-09-29T16:43:12.278Z,43.30
2023-09-29T16:45:43.860Z,41.55
2023-09-29T16:48:15.672Z,42.50
2023-09-29T16:50:47.063Z,42.99
2023-09-29T16:53:19.018Z,42.44
2023-09-29T16:55:50.560Z,42.69
2023-09-29T16:58:22.152Z,43.55
2023-09-29T17:00:54.263Z,43.85
2023-09-29T17:03:26.161Z,44.46
2023-09-29T17:06:03.175Z,43.32
2023-09-29T17:08:35.447Z,43.58
2023-09-29T17:11:13.976Z,45.06
2023-09-29T17:13:46.600Z,45.27
2023-09-29T17:16:18.270Z,44.33
2023-09-29T17:18:49.888Z,45.21
2023-09-29T17:21:23.480Z,45.20
2023-09-29T17:23:57.437Z,45.94
2023-09-29T17:26:29.480Z,45.74
2023-09-29T17:29:00.960Z,48.11
2023-09-29T17:31:32.924Z,45.96
2023-09-29T17:34:04.608Z,46.02
2023-09-29T17:36:38.064Z,48.11
2023-09-29T17:39:09.609Z,48.43
2023-09-29T17:41:41.395Z,49.73
2023-09-29T17:44:12.986Z,48.68
2023-09-29T17:46:45.239Z,48.15
2023-09-29T17:49:16.957Z,48.23
2023-09-29T17:51:48.511Z,48.75
2023-09-29T17:54:20.261Z,48.80
2023-09-29T17:56:51.861Z,49.02
2023-09-29T17:59:23.586Z,49.13
2023-09-29T18:01:55.175Z,48.60
2023-09-29T18:04:28.436Z,49.09
2023-09-29T18:07:04.506Z,48.72
2023-09-29T18:09:37.978Z,48.96
2023-09-29T18:12:10.653Z,50.27
2023-09-29T18:14:43.812Z,50.04
2023-09-29T18:17:15.495Z,49.20
2023-09-29T18:19:47.454Z,49.36
2023-09-29T18:22:20.012Z,50.20
2023-09-29T18:24:53.328Z,49.37
2023-09-29T18:27:25.262Z,49.85
2023-09-29T18:29:56.826Z,50.32
2023-09-29T18:32:28.455Z,50.39
2023-09-29T18:35:00.058Z,50.76
2023-09-29T18:37:31.679Z,50.86
2023-09-29T18:40:03.382Z,50.90
2023-09-29T18:42:35.008Z,50.96
2023-09-29T18:45:07.118Z,50.84
2023-09-29T18:47:38.837Z,50.85
2023-09-29T18:50:10.886Z,52.12
2023-09-29T18:52:43.520Z,52.03
2023-09-29T18:55:15.117Z,51.46
2023-09-29T18:57:47.406Z,52.20
2023-09-29T19:00:19.025Z,52.41
2023-09-29T19:02:50.699Z,52.97
2023-09-29T19:05:22.953Z,53.82
2023-09-29T19:07:54.485Z,53.96
2023-09-29T19:10:26.230Z,54.03
2023-09-29T19:12:57.905Z,54.04
2023-09-29T19:15:29.672Z,53.56
2023-09-29T19:18:01.743Z,53.95
2023-09-29T19:20:37.050Z,54.97
2023-09-29T19:23:08.626Z,55.50
2023-09-29T19:25:41.637Z,55.61
2023-09-29T19:28:14.708Z,56.44
2023-09-29T19:30:46.334Z,57.07
2023-09-29T19:33:17.890Z,57.39
2023-09-29T19:35:49.971Z,57.71
2023-09-29T19:38:21.311Z,58.19
2023-09-29T19:40:52.919Z,59.04
2023-09-29T19:43:24.674Z,60.29
2023-09-29T19:45:58.586Z,61.53
2023-09-29T19:48:30.216Z,62.55
2023-09-29T19:51:03.582Z,62.17
2023-09-29T19:53:35.174Z,64.95
2023-09-29T19:56:12.929Z,65.80
2023-09-29T19:58:44.592Z,66.53
2023-09-29T20:01:21.810Z,67.86
2023-09-29T20:03:54.282Z,68.57
2023-09-29T20:06:26.248Z,69.03
2023-09-29T20:09:01.116Z,69.78
2023-09-29T20:11:32.852Z,68.66
2023-09-29T20:14:04.628Z,69.01
2023-09-29T20:16:37.837Z,68.61
2023-09-29T20:19:10.122Z,68.89
2023-09-29T20:21:41.805Z,67.94
2023-09-29T20:24:13.465Z,68.84
2023-09-29T20:26:45.061Z,68.19
2023-09-29T20:29:16.595Z,67.75
2023-09-29T20:31:48.205Z,67.62
2023-09-29T20:34:19.839Z,67.70
2023-09-29T20:36:51.396Z,67.73
2023-09-29T20:39:22.954Z,67.88
2023-09-29T20:41:56.743Z,67.84
2023-09-29T20:44:28.435Z,68.02
2023-09-29T20:47:00.065Z,66.85
2023-09-29T20:49:31.570Z,67.90
2023-09-29T20:52:04.706Z,67.91
2023-09-29T20:54:36.500Z,68.66
2023-09-29T20:57:09.106Z,69.00
2023-09-29T20:59:42.788Z,68.68
2023-09-29T21:02:15.950Z,68.39
2023-09-29T21:04:48.097Z,67.01
2023-09-29T21:07:19.853Z,67.62
2023-09-29T21:09:51.453Z,68.45
2023-09-29T21:12:23.114Z,68.84
2023-09-29T21:14:54.639Z,70.41
2023-09-29T21:17:26.916Z,70.85
2023-09-29T21:19:59.829Z,68.91
2023-09-29T21:22:31.642Z,68.47
2023-09-29T21:25:03.428Z,68.26
2023-09-29T21:27:35.219Z,67.40
2023-09-29T21:30:09.545Z,66.69
2023-09-29T21:32:42.058Z,65.29
2023-09-29T21:35:14.436Z,63.42
2023-09-29T21:37:46.003Z,63.04
2023-09-29T21:40:20.312Z,62.73
2023-09-29T21:42:51.885Z,62.59
2023-09-29T21:45:23.513Z,62.86
2023-09-29T21:47:55.211Z,63.32
2023-09-29T21:50:27.078Z,63.96
2023-09-29T21:52:58.759Z,63.13
2023-09-29T21:55:30.237Z,63.09
2023-09-29T21:58:04.554Z,62.82
2023-09-29T22:00:39.827Z,62.20
2023-09-29T22:03:15.072Z,61.83
2023-09-29T22:05:53.185Z,61.83
2023-09-29T22:08:24.945Z,62.13
2023-09-29T22:10:56.478Z,61.85
2023-09-29T22:13:28.401Z,61.98
2023-09-29T22:15:59.960Z,61.95
2023-09-29T22:18:31.902Z,62.14
2023-09-29T22:21:04.122Z,62.38
2023-09-29T22:23:35.958Z,62.49
2023-09-29T22:26:07.487Z,62.63
2023-09-29T22:28:40.087Z,62.65
2023-09-29T22:31:12.696Z,62.20
2023-09-29T22:33:44.491Z,63.02
2023-09-29T22:36:16.304Z,62.88
2023-09-29T22:38:49.217Z,63.35
2023-09-29T22:41:21.937Z,63.23
2023-09-29T22:43:53.525Z,63.21
2023-09-29T22:46:25.199Z,63.10
2023-09-29T22:48:56.920Z,64.46
2023-09-29T22:51:28.623Z,63.70
2023-09-29T22:54:00.254Z,63.97
2023-09-29T22:56:31.765Z,64.29
2023-09-29T22:59:04.370Z,64.47
2023-09-29T23:01:35.956Z,64.53
2023-09-29T23:04:08.045Z,65.28
2023-09-29T23:06:39.961Z,65.14
2023-09-29T23:09:12.119Z,65.28
2023-09-29T23:11:43.748Z,65.61
2023-09-29T23:14:15.927Z,65.97
2023-09-29T23:16:47.396Z,65.50
2023-09-29T23:19:19.230Z,65.14
2023-09-29T23:21:51.761Z,65.29
2023-09-29T23:24:23.356Z,65.22
2023-09-29T23:26:54.911Z,65.19
2023-09-29T23:29:26.452Z,65.10
2023-09-29T23:31:58.413Z,65.12
2023-09-29T23:34:30.252Z,65.10
2023-09-29T23:37:01.851Z,65.22
2023-09-29T23:39:33.451Z,65.12
2023-09-29T23:42:05.034Z,65.13
2023-09-29T23:44:36.700Z,65.68
2023-09-29T23:47:08.213Z,65.64
2023-09-29T23:49:40.021Z,65.73
2023-09-29T23:52:11.614Z,65.46
2023-09-29T23:54:43.283Z,65.55
2023-09-29T23:57:14.973Z,66.02
2023-09-29T23:59:46.544Z,67.13
